sensor_id;sensor_type;location;lat;lon;timestamp;pressure;altitude;pressure_sealevel;temperature;humidity
64340;BME280;63709;53.258;-8.814;2023-12-20T00:01:02;102558.16;;;12.19;100.00
64340;BME280;63709;53.258;-8.814;2023-12-20T00:03:27;102558.75;;;12.57;100.00
64340;BME280;63709;53.258;-8.814;2023-12-20T00:05:53;102563.41;;;12.54;100.00
64340;BME280;63709;53.258;-8.814;2023-12-20T00:08:18;102564.16;;;12.56;100.00
64340;BME280;63709;53.258;-8.814;2023-12-20T00:10:44;102557.00;;;12.56;100.00
64340;BME280;63709;53.258;-8.814;2023-12-20T00:13:10;102561.66;;;12.53;100.00
64340;BME280;63709;53.258;-8.814;2023-12-20T00:15:35;102576.25;;;12.31;100.00
64340;BME280;63709;53.258;-8.814;2023-12-20T00:18:01;102562.44;;;12.55;100.00
64340;BME280;63709;53.258;-8.814;2023-12-20T00:20:27;102573.00;;;12.58;100.00
64340;BME280;63709;53.258;-8.814;2023-12-20T00:22:56;102559.25;;;12.48;100.00
64340;BME280;63709;53.258;-8.814;2023-12-20T00:25:21;102579.38;;;12.55;100.00
64340;BME280;63709;53.258;-8.814;2023-12-20T00:27:47;102577.81;;;12.51;100.00
64340;BME280;63709;53.258;-8.814;2023-12-20T00:30:12;102578.25;;;12.59;100.00
64340;BME280;63709;53.258;-8.814;2023-12-20T00:32:38;102581.16;;;12.72;100.00
64340;BME280;63709;53.258;-8.814;2023-12-20T00:35:04;102577.50;;;12.73;100.00
64340;BME280;63709;53.258;-8.814;2023-12-20T00:37:29;102570.75;;;12.66;100.00
64340;BME280;63709;53.258;-8.814;2023-12-20T00:39:55;102568.59;;;12.89;100.00
64340;BME280;63709;53.258;-8.814;2023-12-20T00:42:20;102566.63;;;12.76;100.00
64340;BME280;63709;53.258;-8.814;2023-12-20T00:44:45;102569.72;;;12.84;100.00
64340;BME280;63709;53.258;-8.814;2023-12-20T00:47:11;102573.78;;;12.92;100.00
64340;BME280;63709;53.258;-8.814;2023-12-20T00:49:36;102575.88;;;13.02;100.00
64340;BME280;63709;53.258;-8.814;2023-12-20T00:52:02;102566.63;;;12.76;100.00
64340;BME280;63709;53.258;-8.814;2023-12-20T00:54:27;102567.22;;;12.81;100.00
64340;BME280;63709;53.258;-8.814;2023-12-20T00:56:53;102567.03;;;12.84;100.00
64340;BME280;63709;53.258;-8.814;2023-12-20T00:59:19;102562.22;;;12.91;100.00
64340;BME280;63709;53.258;-8.814;2023-12-20T01:01:44;102567.81;;;13.02;100.00
64340;BME280;63709;53.258;-8.814;2023-12-20T01:04:10;102562.34;;;13.04;100.00
64340;BME280;63709;53.258;-8.814;2023-12-20T01:06:35;102567.03;;;13.00;100.00
64340;BME280;63709;53.258;-8.814;2023-12-20T01:09:01;102563.69;;;12.81;100.00
64340;BME280;63709;53.258;-8.814;2023-12-20T01:11:26;102557.78;;;12.74;100.00
64340;BME280;63709;53.258;-8.814;2023-12-20T01:13:52;102561.84;;;12.81;100.00
64340;BME280;63709;53.258;-8.814;2023-12-20T01:16:17;102566.44;;;12.79;100.00
64340;BME280;63709;53.258;-8.814;2023-12-20T01:18:42;102557.34;;;12.66;100.00
64340;BME280;63709;53.258;-8.814;2023-12-20T01:21:08;102556.94;;;12.74;100.00
64340;BME280;63709;53.258;-8.814;2023-12-20T01:23:33;102551.22;;;12.80;100.00
64340;BME280;63709;53.258;-8.814;2023-12-20T01:25:59;102551.31;;;12.78;100.00
64340;BME280;63709;53.258;-8.814;2023-12-20T01:28:28;102540.59;;;12.78;100.00
64340;BME280;63709;53.258;-8.814;2023-12-20T01:30:53;102531.44;;;12.98;100.00
64340;BME280;63709;53.258;-8.814;2023-12-20T01:33:19;102546.72;;;12.96;100.00
64340;BME280;63709;53.258;-8.814;2023-12-20T01:35:44;102538.84;;;12.93;100.00
64340;BME280;63709;53.258;-8.814;2023-12-20T01:38:09;102536.44;;;12.89;100.00
64340;BME280;63709;53.258;-8.814;2023-12-20T01:40:35;102527.97;;;12.80;100.00
64340;BME280;63709;53.258;-8.814;2023-12-20T01:43:08;102521.56;;;12.99;100.00
64340;BME280;63709;53.258;-8.814;2023-12-20T01:45:34;102522.34;;;12.85;100.00
64340;BME280;63709;53.258;-8.814;2023-12-20T01:47:59;102525.00;;;13.01;100.00
64340;BME280;63709;53.258;-8.814;2023-12-20T01:50:28;102518.13;;;12.81;100.00
64340;BME280;63709;53.258;-8.814;2023-12-20T01:52:55;102528.97;;;12.94;100.00
64340;BME280;63709;53.258;-8.814;2023-12-20T01:55:23;102532.47;;;12.80;100.00
64340;BME280;63709;53.258;-8.814;2023-12-20T01:57:49;102539.66;;;12.79;100.00
64340;BME280;63709;53.258;-8.814;2023-12-20T02:00:15;102532.72;;;12.91;100.00
64340;BME280;63709;53.258;-8.814;2023-12-20T02:02:41;102524.25;;;12.83;100.00
64340;BME280;63709;53.258;-8.814;2023-12-20T02:05:07;102517.59;;;12.74;100.00
64340;BME280;63709;53.258;-8.814;2023-12-20T02:07:33;102509.38;;;12.77;100.00
64340;BME280;63709;53.258;-8.814;2023-12-20T02:10:00;102505.75;;;12.78;100.00
64340;BME280;63709;53.258;-8.814;2023-12-20T02:12:26;102497.53;;;12.81;100.00
64340;BME280;63709;53.258;-8.814;2023-12-20T02:14:51;102504.03;;;12.77;100.00
64340;BME280;63709;53.258;-8.814;2023-12-20T02:17:17;102510.88;;;12.83;100.00
64340;BME280;63709;53.258;-8.814;2023-12-20T02:19:43;102500.47;;;12.93;100.00
64340;BME280;63709;53.258;-8.814;2023-12-20T02:22:11;102510.84;;;12.67;100.00
64340;BME280;63709;53.258;-8.814;2023-12-20T02:24:37;102515.53;;;12.79;100.00
64340;BME280;63709;53.258;-8.814;2023-12-20T02:27:03;102516.03;;;12.86;100.00
64340;BME280;63709;53.258;-8.814;2023-12-20T02:29:30;102533.94;;;12.86;100.00
64340;BME280;63709;53.258;-8.814;2023-12-20T02:31:56;102533.94;;;12.86;100.00
64340;BME280;63709;53.258;-8.814;2023-12-20T02:34:21;102525.53;;;12.92;100.00
64340;BME280;63709;53.258;-8.814;2023-12-20T02:36:47;102519.50;;;12.88;100.00
64340;BME280;63709;53.258;-8.814;2023-12-20T02:39:12;102514.66;;;12.79;100.00
64340;BME280;63709;53.258;-8.814;2023-12-20T02:41:38;102510.19;;;12.79;100.00
64340;BME280;63709;53.258;-8.814;2023-12-20T02:44:03;102524.78;;;12.58;100.00
64340;BME280;63709;53.258;-8.814;2023-12-20T02:46:29;102503.44;;;12.72;100.00
64340;BME280;63709;53.258;-8.814;2023-12-20T02:48:54;102522.97;;;12.74;100.00
64340;BME280;63709;53.258;-8.814;2023-12-20T02:51:20;102532.03;;;12.56;100.00
64340;BME280;63709;53.258;-8.814;2023-12-20T02:53:45;102537.22;;;12.91;100.00
64340;BME280;63709;53.258;-8.814;2023-12-20T02:56:11;102525.22;;;12.98;100.00
64340;BME280;63709;53.258;-8.814;2023-12-20T02:58:36;102521.72;;;12.96;100.00
64340;BME280;63709;53.258;-8.814;2023-12-20T03:01:02;102510.03;;;13.13;100.00
64340;BME280;63709;53.258;-8.814;2023-12-20T03:03:27;102526.03;;;13.14;100.00
64340;BME280;63709;53.258;-8.814;2023-12-20T03:05:53;102545.31;;;13.21;100.00
64340;BME280;63709;53.258;-8.814;2023-12-20T03:08:18;102543.16;;;13.27;100.00
64340;BME280;63709;53.258;-8.814;2023-12-20T03:10:43;102546.34;;;13.18;100.00
64340;BME280;63709;53.258;-8.814;2023-12-20T03:13:09;102538.84;;;13.09;100.00
64340;BME280;63709;53.258;-8.814;2023-12-20T03:15:34;102531.97;;;13.19;100.00
64340;BME280;63709;53.258;-8.814;2023-12-20T03:18:00;102530.06;;;13.21;100.00
64340;BME280;63709;53.258;-8.814;2023-12-20T03:20:25;102529.47;;;13.16;100.00
64340;BME280;63709;53.258;-8.814;2023-12-20T03:22:56;102522.56;;;13.28;100.00
64340;BME280;63709;53.258;-8.814;2023-12-20T03:25:21;102513.38;;;13.16;100.00
64340;BME280;63709;53.258;-8.814;2023-12-20T03:27:47;102513.75;;;13.10;100.00
64340;BME280;63709;53.258;-8.814;2023-12-20T03:30:12;102502.00;;;13.13;100.00
64340;BME280;63709;53.258;-8.814;2023-12-20T03:32:38;102510.75;;;13.00;100.00
64340;BME280;63709;53.258;-8.814;2023-12-20T03:35:04;102498.19;;;13.01;100.00
64340;BME280;63709;53.258;-8.814;2023-12-20T03:37:29;102500.69;;;13.04;100.00
64340;BME280;63709;53.258;-8.814;2023-12-20T03:39:55;102497.13;;;13.19;100.00
64340;BME280;63709;53.258;-8.814;2023-12-20T03:42:20;102508.38;;;13.26;100.00
64340;BME280;63709;53.258;-8.814;2023-12-20T03:44:46;102513.28;;;13.34;100.00
64340;BME280;63709;53.258;-8.814;2023-12-20T03:47:11;102509.59;;;13.20;100.00
64340;BME280;63709;53.258;-8.814;2023-12-20T03:49:37;102508.28;;;13.12;100.00
64340;BME280;63709;53.258;-8.814;2023-12-20T03:52:04;102516.03;;;13.02;100.00
64340;BME280;63709;53.258;-8.814;2023-12-20T03:54:29;102513.13;;;13.37;100.00
64340;BME280;63709;53.258;-8.814;2023-12-20T03:56:55;102509.56;;;13.36;100.00
64340;BME280;63709;53.258;-8.814;2023-12-20T03:59:20;102500.88;;;13.47;100.00
64340;BME280;63709;53.258;-8.814;2023-12-20T04:01:45;102516.53;;;13.24;100.00
64340;BME280;63709;53.258;-8.814;2023-12-20T04:04:11;102518.81;;;13.30;100.00
64340;BME280;63709;53.258;-8.814;2023-12-20T04:06:37;102506.50;;;13.28;100.00
64340;BME280;63709;53.258;-8.814;2023-12-20T04:09:03;102501.59;;;13.35;100.00
64340;BME280;63709;53.258;-8.814;2023-12-20T04:11:28;102499.81;;;13.35;100.00
64340;BME280;63709;53.258;-8.814;2023-12-20T04:13:54;102499.59;;;13.38;100.00
64340;BME280;63709;53.258;-8.814;2023-12-20T04:16:19;102509.06;;;13.29;100.00
64340;BME280;63709;53.258;-8.814;2023-12-20T04:18:45;102495.00;;;13.40;100.00
64340;BME280;63709;53.258;-8.814;2023-12-20T04:21:10;102491.16;;;13.30;100.00
64340;BME280;63709;53.258;-8.814;2023-12-20T04:23:35;102490.44;;;13.42;100.00
64340;BME280;63709;53.258;-8.814;2023-12-20T04:26:01;102481.31;;;13.45;100.00
64340;BME280;63709;53.258;-8.814;2023-12-20T04:28:26;102467.84;;;13.46;100.00
64340;BME280;63709;53.258;-8.814;2023-12-20T04:30:55;102463.16;;;13.50;100.00
64340;BME280;63709;53.258;-8.814;2023-12-20T04:33:20;102464.84;;;13.51;100.00
64340;BME280;63709;53.258;-8.814;2023-12-20T04:35:46;102461.88;;;13.55;100.00
64340;BME280;63709;53.258;-8.814;2023-12-20T04:38:12;102461.34;;;13.65;100.00
64340;BME280;63709;53.258;-8.814;2023-12-20T04:40:37;102468.97;;;13.56;100.00
64340;BME280;63709;53.258;-8.814;2023-12-20T04:43:03;102460.75;;;13.60;100.00
64340;BME280;63709;53.258;-8.814;2023-12-20T04:45:28;102469.00;;;13.71;100.00
64340;BME280;63709;53.258;-8.814;2023-12-20T04:47:55;102463.88;;;13.38;100.00
64340;BME280;63709;53.258;-8.814;2023-12-20T04:50:20;102468.72;;;13.61;100.00
64340;BME280;63709;53.258;-8.814;2023-12-20T04:52:46;102477.03;;;13.71;100.00
64340;BME280;63709;53.258;-8.814;2023-12-20T04:55:12;102457.78;;;13.78;100.00
64340;BME280;63709;53.258;-8.814;2023-12-20T04:57:37;102456.25;;;13.74;100.00
64340;BME280;63709;53.258;-8.814;2023-12-20T05:00:03;102456.34;;;13.73;100.00
64340;BME280;63709;53.258;-8.814;2023-12-20T05:02:29;102450.69;;;13.92;100.00
64340;BME280;63709;53.258;-8.814;2023-12-20T05:04:55;102445.22;;;13.93;100.00
64340;BME280;63709;53.258;-8.814;2023-12-20T05:07:20;102444.72;;;13.87;100.00
64340;BME280;63709;53.258;-8.814;2023-12-20T05:09:46;102451.19;;;13.98;100.00
64340;BME280;63709;53.258;-8.814;2023-12-20T05:12:11;102451.84;;;13.88;100.00
64340;BME280;63709;53.258;-8.814;2023-12-20T05:14:37;102447.91;;;13.79;100.00
64340;BME280;63709;53.258;-8.814;2023-12-20T05:17:02;102451.06;;;13.86;100.00
64340;BME280;63709;53.258;-8.814;2023-12-20T05:19:28;102457.78;;;13.78;100.00
64340;BME280;63709;53.258;-8.814;2023-12-20T05:21:54;102451.84;;;13.59;100.00
64340;BME280;63709;53.258;-8.814;2023-12-20T05:24:19;102453.97;;;13.68;100.00
64340;BME280;63709;53.258;-8.814;2023-12-20T05:26:44;102451.06;;;13.71;100.00
64340;BME280;63709;53.258;-8.814;2023-12-20T05:29:10;102456.34;;;13.59;100.00
64340;BME280;63709;53.258;-8.814;2023-12-20T05:31:35;102457.28;;;13.72;100.00
64340;BME280;63709;53.258;-8.814;2023-12-20T05:34:01;102456.84;;;13.65;100.00
64340;BME280;63709;53.258;-8.814;2023-12-20T05:36:26;102451.84;;;13.73;100.00
64340;BME280;63709;53.258;-8.814;2023-12-20T05:38:52;102463.44;;;13.60;100.00
64340;BME280;63709;53.258;-8.814;2023-12-20T05:41:18;102451.00;;;13.73;100.00
64340;BME280;63709;53.258;-8.814;2023-12-20T05:43:43;102447.03;;;13.78;100.00
64340;BME280;63709;53.258;-8.814;2023-12-20T05:46:10;102440.75;;;13.79;100.00
64340;BME280;63709;53.258;-8.814;2023-12-20T05:48:37;102443.13;;;13.70;100.00
64340;BME280;63709;53.258;-8.814;2023-12-20T05:51:03;102443.03;;;13.86;100.00
64340;BME280;63709;53.258;-8.814;2023-12-20T05:53:28;102444.34;;;13.93;100.00
64340;BME280;63709;53.258;-8.814;2023-12-20T05:55:53;102447.03;;;13.78;100.00
64340;BME280;63709;53.258;-8.814;2023-12-20T05:58:19;102437.09;;;13.80;100.00
64340;BME280;63709;53.258;-8.814;2023-12-20T06:00:44;102432.66;;;13.94;100.00
64340;BME280;63709;53.258;-8.814;2023-12-20T06:03:10;102426.06;;;13.71;100.00
64340;BME280;63709;53.258;-8.814;2023-12-20T06:05:35;102425.09;;;13.72;100.00
64340;BME280;63709;53.258;-8.814;2023-12-20T06:08:00;102411.41;;;13.76;100.00
64340;BME280;63709;53.258;-8.814;2023-12-20T06:10:28;102418.97;;;13.70;100.00
64340;BME280;63709;53.258;-8.814;2023-12-20T06:12:54;102437.84;;;13.83;100.00
64340;BME280;63709;53.258;-8.814;2023-12-20T06:15:21;102429.22;;;13.77;100.00
64340;BME280;63709;53.258;-8.814;2023-12-20T06:17:46;102421.72;;;13.83;100.00
64340;BME280;63709;53.258;-8.814;2023-12-20T06:20:12;102427.50;;;13.91;100.00
64340;BME280;63709;53.258;-8.814;2023-12-20T06:22:38;102424.22;;;13.86;100.00
64340;BME280;63709;53.258;-8.814;2023-12-20T06:25:04;102417.25;;;13.83;100.00
64340;BME280;63709;53.258;-8.814;2023-12-20T06:27:30;102424.41;;;13.83;100.00
64340;BME280;63709;53.258;-8.814;2023-12-20T06:29:57;102417.25;;;13.83;100.00
64340;BME280;63709;53.258;-8.814;2023-12-20T06:32:23;102405.06;;;13.92;100.00
64340;BME280;63709;53.258;-8.814;2023-12-20T06:34:49;102399.09;;;13.87;100.00
64340;BME280;63709;53.258;-8.814;2023-12-20T06:37:15;102390.59;;;13.80;100.00
64340;BME280;63709;53.258;-8.814;2023-12-20T06:39:40;102390.31;;;13.70;100.00
64340;BME280;63709;53.258;-8.814;2023-12-20T06:42:06;102386.09;;;13.52;100.00
64340;BME280;63709;53.258;-8.814;2023-12-20T06:44:31;102388.28;;;13.60;100.00
64340;BME280;63709;53.258;-8.814;2023-12-20T06:46:57;102391.56;;;13.50;100.00
64340;BME280;63709;53.258;-8.814;2023-12-20T06:49:23;102392.44;;;13.51;100.00
64340;BME280;63709;53.258;-8.814;2023-12-20T06:51:48;102399.13;;;13.44;100.00
64340;BME280;63709;53.258;-8.814;2023-12-20T06:54:14;102392.22;;;13.40;100.00
64340;BME280;63709;53.258;-8.814;2023-12-20T06:56:39;102384.38;;;13.37;100.00
64340;BME280;63709;53.258;-8.814;2023-12-20T06:59:05;102370.38;;;13.46;100.00
64340;BME280;63709;53.258;-8.814;2023-12-20T07:01:31;102383.97;;;13.57;100.00
64340;BME280;63709;53.258;-8.814;2023-12-20T07:03:57;102392.31;;;13.52;100.00
64340;BME280;63709;53.258;-8.814;2023-12-20T07:06:22;102384.38;;;13.51;100.00
64340;BME280;63709;53.258;-8.814;2023-12-20T07:08:48;102389.53;;;13.40;100.00
64340;BME280;63709;53.258;-8.814;2023-12-20T07:11:13;102387.44;;;13.59;100.00
64340;BME280;63709;53.258;-8.814;2023-12-20T07:13:39;102392.63;;;13.62;100.00
64340;BME280;63709;53.258;-8.814;2023-12-20T07:16:04;102390.97;;;13.45;100.00
64340;BME280;63709;53.258;-8.814;2023-12-20T07:18:30;102392.59;;;13.48;100.00
64340;BME280;63709;53.258;-8.814;2023-12-20T07:20:55;102397.47;;;13.41;100.00
64340;BME280;63709;53.258;-8.814;2023-12-20T07:23:21;102393.78;;;13.58;100.00
64340;BME280;63709;53.258;-8.814;2023-12-20T07:25:46;102384.66;;;13.46;100.00
64340;BME280;63709;53.258;-8.814;2023-12-20T07:28:12;102390.22;;;13.43;100.00
64340;BME280;63709;53.258;-8.814;2023-12-20T07:30:37;102390.03;;;13.46;100.00
64340;BME280;63709;53.258;-8.814;2023-12-20T07:33:03;102386.88;;;13.40;100.00
64340;BME280;63709;53.258;-8.814;2023-12-20T07:35:28;102386.84;;;13.25;100.00
64340;BME280;63709;53.258;-8.814;2023-12-20T07:37:54;102378.41;;;13.46;100.00
64340;BME280;63709;53.258;-8.814;2023-12-20T07:40:19;102380.50;;;13.26;100.00
64340;BME280;63709;53.258;-8.814;2023-12-20T07:42:45;102392.78;;;13.45;100.00
64340;BME280;63709;53.258;-8.814;2023-12-20T07:45:10;102384.00;;;13.43;100.00
64340;BME280;63709;53.258;-8.814;2023-12-20T07:47:37;102370.09;;;13.36;100.00
64340;BME280;63709;53.258;-8.814;2023-12-20T07:50:02;102362.81;;;13.52;100.00
64340;BME280;63709;53.258;-8.814;2023-12-20T07:52:29;102354.50;;;13.43;100.00
64340;BME280;63709;53.258;-8.814;2023-12-20T07:54:54;102354.97;;;13.35;100.00
64340;BME280;63709;53.258;-8.814;2023-12-20T07:57:20;102365.00;;;13.46;100.00
64340;BME280;63709;53.258;-8.814;2023-12-20T07:59:46;102373.06;;;13.46;100.00
64340;BME280;63709;53.258;-8.814;2023-12-20T08:02:11;102362.31;;;13.46;100.00
64340;BME280;63709;53.258;-8.814;2023-12-20T08:04:37;102375.19;;;13.55;100.00
64340;BME280;63709;53.258;-8.814;2023-12-20T08:07:03;102376.50;;;13.62;100.00
64340;BME280;63709;53.258;-8.814;2023-12-20T08:09:29;102385.50;;;13.75;100.00
64340;BME280;63709;53.258;-8.814;2023-12-20T08:11:55;102398.34;;;13.70;100.00
64340;BME280;63709;53.258;-8.814;2023-12-20T08:14:21;102391.28;;;13.55;100.00
64340;BME280;63709;53.258;-8.814;2023-12-20T08:16:46;102384.75;;;13.59;100.00
64340;BME280;63709;53.258;-8.814;2023-12-20T08:19:11;102370.09;;;13.65;100.00
64340;BME280;63709;53.258;-8.814;2023-12-20T08:21:37;102359.91;;;13.27;100.00
64340;BME280;63709;53.258;-8.814;2023-12-20T08:24:03;102373.25;;;13.57;100.00
64340;BME280;63709;53.258;-8.814;2023-12-20T08:26:28;102365.78;;;13.34;100.00
64340;BME280;63709;53.258;-8.814;2023-12-20T08:28:54;102368.09;;;13.40;100.00
64340;BME280;63709;53.258;-8.814;2023-12-20T08:31:19;102364.16;;;13.45;100.00
64340;BME280;63709;53.258;-8.814;2023-12-20T08:33:46;102365.41;;;13.40;100.00
64340;BME280;63709;53.258;-8.814;2023-12-20T08:36:12;102377.56;;;13.45;100.00
64340;BME280;63709;53.258;-8.814;2023-12-20T08:38:37;102365.78;;;13.62;100.00
64340;BME280;63709;53.258;-8.814;2023-12-20T08:41:03;102367.78;;;13.30;100.00
64340;BME280;63709;53.258;-8.814;2023-12-20T08:43:39;102356.69;;;13.36;100.00
64340;BME280;63709;53.258;-8.814;2023-12-20T08:46:07;102347.09;;;13.32;100.00
64340;BME280;63709;53.258;-8.814;2023-12-20T08:48:35;102367.13;;;13.41;100.00
64340;BME280;63709;53.258;-8.814;2023-12-20T08:51:00;102371.91;;;13.36;100.00
64340;BME280;63709;53.258;-8.814;2023-12-20T08:53:26;102374.41;;;13.39;100.00
64340;BME280;63709;53.258;-8.814;2023-12-20T08:55:52;102383.22;;;13.41;100.00
64340;BME280;63709;53.258;-8.814;2023-12-20T08:58:17;102382.53;;;13.37;100.00
64340;BME280;63709;53.258;-8.814;2023-12-20T09:00:42;102390.72;;;13.50;100.00
64340;BME280;63709;53.258;-8.814;2023-12-20T09:03:08;102378.41;;;13.46;100.00
64340;BME280;63709;53.258;-8.814;2023-12-20T09:05:34;102381.97;;;13.32;100.00
64340;BME280;63709;53.258;-8.814;2023-12-20T09:07:59;102369.03;;;13.53;100.00
64340;BME280;63709;53.258;-8.814;2023-12-20T09:10:25;102372.66;;;13.38;100.00
64340;BME280;63709;53.258;-8.814;2023-12-20T09:12:53;102371.72;;;13.39;100.00
64340;BME280;63709;53.258;-8.814;2023-12-20T09:15:26;102349.88;;;13.30;100.00
64340;BME280;63709;53.258;-8.814;2023-12-20T09:17:53;102364.25;;;13.44;100.00
64340;BME280;63709;53.258;-8.814;2023-12-20T09:20:19;102352.84;;;13.54;100.00
64340;BME280;63709;53.258;-8.814;2023-12-20T09:22:44;102343.16;;;13.52;100.00
64340;BME280;63709;53.258;-8.814;2023-12-20T09:25:10;102331.75;;;13.34;100.00
64340;BME280;63709;53.258;-8.814;2023-12-20T09:27:40;102343.16;;;13.38;100.00
64340;BME280;63709;53.258;-8.814;2023-12-20T09:30:06;102347.69;;;13.51;100.00
64340;BME280;63709;53.258;-8.814;2023-12-20T09:32:32;102357.63;;;13.49;100.00
64340;BME280;63709;53.258;-8.814;2023-12-20T09:34:58;102373.16;;;13.59;100.00
64340;BME280;63709;53.258;-8.814;2023-12-20T09:37:26;102353.41;;;13.45;100.00
64340;BME280;63709;53.258;-8.814;2023-12-20T09:39:52;102369.13;;;13.51;100.00
64340;BME280;63709;53.258;-8.814;2023-12-20T09:45:00;102368.66;;;13.59;100.00
64340;BME280;63709;53.258;-8.814;2023-12-20T09:47:28;102375.19;;;13.55;100.00
64340;BME280;63709;53.258;-8.814;2023-12-20T09:49:54;102367.41;;;13.50;100.00
64340;BME280;63709;53.258;-8.814;2023-12-20T09:52:20;102369.88;;;13.68;100.00
64340;BME280;63709;53.258;-8.814;2023-12-20T09:54:49;102392.25;;;13.68;100.00
64340;BME280;63709;53.258;-8.814;2023-12-20T09:57:16;102374.41;;;13.53;100.00
64340;BME280;63709;53.258;-8.814;2023-12-20T09:59:42;102360.91;;;13.40;100.00
64340;BME280;63709;53.258;-8.814;2023-12-20T10:02:13;102297.72;;;13.63;100.00
64340;BME280;63709;53.258;-8.814;2023-12-20T10:04:46;102345.66;;;13.55;100.00
64340;BME280;63709;53.258;-8.814;2023-12-20T10:07:12;102340.31;;;13.55;100.00
64340;BME280;63709;53.258;-8.814;2023-12-20T10:09:38;102316.44;;;13.65;100.00
64340;BME280;63709;53.258;-8.814;2023-12-20T10:12:04;102318.41;;;13.75;100.00
64340;BME280;63709;53.258;-8.814;2023-12-20T10:14:32;102309.44;;;13.62;100.00
64340;BME280;63709;53.258;-8.814;2023-12-20T10:17:04;102318.53;;;13.74;100.00
64340;BME280;63709;53.258;-8.814;2023-12-20T10:19:31;102328.41;;;13.73;100.00
64340;BME280;63709;53.258;-8.814;2023-12-20T10:21:58;102317.50;;;13.62;100.00
64340;BME280;63709;53.258;-8.814;2023-12-20T10:24:24;102330.41;;;13.70;100.00
64340;BME280;63709;53.258;-8.814;2023-12-20T10:27:04;102324.66;;;13.76;100.00
64340;BME280;63709;53.258;-8.814;2023-12-20T10:29:33;102332.59;;;13.77;100.00
64340;BME280;63709;53.258;-8.814;2023-12-20T10:31:59;102334.50;;;13.75;100.00
64340;BME280;63709;53.258;-8.814;2023-12-20T10:34:25;102330.03;;;13.76;100.00
64340;BME280;63709;53.258;-8.814;2023-12-20T10:36:51;102328.94;;;13.78;100.00
64340;BME280;63709;53.258;-8.814;2023-12-20T10:39:17;102318.50;;;13.88;100.00
64340;BME280;63709;53.258;-8.814;2023-12-20T10:41:44;102325.53;;;13.76;100.00
64340;BME280;63709;53.258;-8.814;2023-12-20T10:44:11;102323.59;;;13.78;100.00
64340;BME280;63709;53.258;-8.814;2023-12-20T10:46:39;102323.56;;;13.93;100.00
64340;BME280;63709;53.258;-8.814;2023-12-20T10:49:06;102333.94;;;13.85;100.00
64340;BME280;63709;53.258;-8.814;2023-12-20T10:51:34;102325.69;;;13.88;100.00
64340;BME280;63709;53.258;-8.814;2023-12-20T10:54:00;102321.69;;;13.80;100.00
64340;BME280;63709;53.258;-8.814;2023-12-20T10:56:30;102318.66;;;13.99;100.00
64340;BME280;63709;53.258;-8.814;2023-12-20T10:58:57;102312.06;;;13.91;100.00
64340;BME280;63709;53.258;-8.814;2023-12-20T11:01:28;102313.16;;;14.01;100.00
64340;BME280;63709;53.258;-8.814;2023-12-20T11:03:54;102329.59;;;13.96;100.00
64340;BME280;63709;53.258;-8.814;2023-12-20T11:09:16;102322.03;;;14.16;100.00
64340;BME280;63709;53.258;-8.814;2023-12-20T11:14:23;102299.75;;;14.01;100.00
64340;BME280;63709;53.258;-8.814;2023-12-20T11:16:50;102287.28;;;14.00;100.00
64340;BME280;63709;53.258;-8.814;2023-12-20T11:19:16;102281.25;;;14.23;100.00
64340;BME280;63709;53.258;-8.814;2023-12-20T11:21:42;102284.69;;;14.13;100.00
64340;BME280;63709;53.258;-8.814;2023-12-20T11:24:07;102273.00;;;14.26;100.00
64340;BME280;63709;53.258;-8.814;2023-12-20T11:26:33;102243.31;;;14.15;100.00
64340;BME280;63709;53.258;-8.814;2023-12-20T11:29:30;102252.53;;;14.11;100.00
64340;BME280;63709;53.258;-8.814;2023-12-20T11:31:57;102258.03;;;14.10;100.00
64340;BME280;63709;53.258;-8.814;2023-12-20T11:34:27;102253.72;;;14.07;100.00
64340;BME280;63709;53.258;-8.814;2023-12-20T11:37:02;102256.06;;;14.12;100.00
64340;BME280;63709;53.258;-8.814;2023-12-20T11:39:28;102243.97;;;14.19;100.00
64340;BME280;63709;53.258;-8.814;2023-12-20T11:41:56;102235.03;;;14.18;100.00
64340;BME280;63709;53.258;-8.814;2023-12-20T11:44:22;102236.34;;;14.13;100.00
64340;BME280;63709;53.258;-8.814;2023-12-20T11:46:48;102219.34;;;14.12;100.00
64340;BME280;63709;53.258;-8.814;2023-12-20T11:49:14;102216.25;;;14.18;100.00
64340;BME280;63709;53.258;-8.814;2023-12-20T11:51:42;102220.84;;;14.16;100.00
64340;BME280;63709;53.258;-8.814;2023-12-20T11:54:08;102219.06;;;14.29;100.00
64340;BME280;63709;53.258;-8.814;2023-12-20T11:56:35;102215.28;;;14.19;100.00
64340;BME280;63709;53.258;-8.814;2023-12-20T11:59:01;102228.84;;;14.31;100.00
64340;BME280;63709;53.258;-8.814;2023-12-20T12:01:26;102218.28;;;14.27;100.00
64340;BME280;63709;53.258;-8.814;2023-12-20T12:04:07;102215.53;;;14.42;100.00
64340;BME280;63709;53.258;-8.814;2023-12-20T12:06:33;102212.75;;;14.43;100.00
64340;BME280;63709;53.258;-8.814;2023-12-20T12:08:59;102208.22;;;14.44;100.00
64340;BME280;63709;53.258;-8.814;2023-12-20T12:11:24;102206.06;;;14.49;100.00
64340;BME280;63709;53.258;-8.814;2023-12-20T12:13:50;102210.38;;;14.39;100.00
64340;BME280;63709;53.258;-8.814;2023-12-20T12:16:22;102204.78;;;14.42;100.00
64340;BME280;63709;53.258;-8.814;2023-12-20T12:18:55;102194.28;;;14.39;100.00
64340;BME280;63709;53.258;-8.814;2023-12-20T12:21:21;102200.06;;;14.33;100.00
64340;BME280;63709;53.258;-8.814;2023-12-20T12:23:46;102204.84;;;14.55;100.00
64340;BME280;63709;53.258;-8.814;2023-12-20T12:26:12;102190.84;;;14.49;100.00
64340;BME280;63709;53.258;-8.814;2023-12-20T12:28:40;102191.91;;;14.47;100.00
64340;BME280;63709;53.258;-8.814;2023-12-20T12:31:06;102187.28;;;14.49;100.00
64340;BME280;63709;53.258;-8.814;2023-12-20T12:33:32;102182.88;;;14.48;100.00